Jatei, Brazil
Current Conditions -  °F | °C
As of 2:20 PM on Friday 28 Nov 2014 (Local Time) from SBCG Reporting Station
Thunderstorm Thunderstorm  
Wind Chill: 81°   Ceiling: 4500
Heat Index: 85°   Visibility: 6mi
Dew Point: 73°   Wind: 8mph
Humidity: 79%   Direction: 340°NNW
Pressure: 29.88"   Gusts: NA
Location:  22.48°S, 54.3°W
Report Text: SBCG 281720Z 34007KT 9999 TS VCSH BKN045 FEW050CB 27/23 Q1012
Loading
Personal Weather Stations






























Interactive Weather Map New forecast layout! Learn more

10-Day Weather Forecast

Advertisements
Track Severe Weather on mobile